createdAt,value
2019-01-23T00:01:26.349Z,96.90
2019-01-23T00:04:03.430Z,97.00
2019-01-23T00:06:37.839Z,97.00
2019-01-23T00:09:18.091Z,97.20
2019-01-23T00:11:52.913Z,97.30
2019-01-23T00:14:27.573Z,97.30
2019-01-23T00:16:57.450Z,97.30
2019-01-23T00:19:28.678Z,97.30
2019-01-23T00:22:00.222Z,97.40
2019-01-23T00:27:10.570Z,97.30
2019-01-23T00:29:41.682Z,97.20
2019-01-23T00:32:11.753Z,97.20
2019-01-23T00:34:43.521Z,97.30
2019-01-23T00:37:21.231Z,97.30
2019-01-23T00:39:52.182Z,97.20
2019-01-23T00:42:22.269Z,97.00
2019-01-23T00:44:53.733Z,97.00
2019-01-23T00:47:25.137Z,97.10
2019-01-23T00:50:02.195Z,97.10
2019-01-23T00:52:38.937Z,97.10
2019-01-23T00:55:16.049Z,97.20
2019-01-23T00:57:46.132Z,97.20
2019-01-23T01:00:30.072Z,97.20
2019-01-23T01:02:58.556Z,97.20
2019-01-23T01:05:32.330Z,97.10
2019-01-23T01:08:04.616Z,97.10
2019-01-23T01:10:38.640Z,97.20
2019-01-23T01:13:15.692Z,97.10
2019-01-23T01:15:45.753Z,97.20
2019-01-23T01:18:16.932Z,97.10
2019-01-23T01:20:54.298Z,97.10
2019-01-23T01:23:24.229Z,97.30
2019-01-23T01:25:57.283Z,97.30
2019-01-23T01:28:33.316Z,97.10
2019-01-23T01:31:06.093Z,97.10
2019-01-23T01:33:40.566Z,97.20
2019-01-23T01:36:19.320Z,97.30
2019-01-23T01:38:50.160Z,97.30
2019-01-23T01:41:21.777Z,97.30
2019-01-23T01:43:56.174Z,97.30
2019-01-23T01:46:24.613Z,97.40
2019-01-23T01:48:56.477Z,97.40
2019-01-23T01:51:26.699Z,97.40
2019-01-23T01:53:55.123Z,97.40
2019-01-23T01:56:26.506Z,97.40
2019-01-23T01:59:03.518Z,97.30
2019-01-23T02:01:34.408Z,97.40
2019-01-23T02:04:05.666Z,97.50
2019-01-23T02:06:37.179Z,97.40
2019-01-23T02:09:08.164Z,97.40
2019-01-23T02:11:41.156Z,97.60
2019-01-23T02:14:15.173Z,97.40
2019-01-23T02:16:45.245Z,97.40
2019-01-23T02:19:13.698Z,97.20
2019-01-23T02:21:45.111Z,97.20
2019-01-23T02:24:23.869Z,97.10
2019-01-23T02:26:53.957Z,97.20
2019-01-23T02:29:25.390Z,97.50
2019-01-23T02:31:57.602Z,97.50
2019-01-23T02:34:28.885Z,97.60
2019-01-23T02:37:00.184Z,97.80
2019-01-23T02:39:28.629Z,97.40
2019-01-23T02:41:59.530Z,97.40
2019-01-23T02:44:35.569Z,97.30
2019-01-23T02:47:04.413Z,97.40
2019-01-23T02:49:32.837Z,97.30
2019-01-23T02:52:06.998Z,97.30
2019-01-23T02:54:35.431Z,97.60
2019-01-23T02:57:07.069Z,97.70
2019-01-23T02:59:35.498Z,97.80
2019-01-23T03:02:08.737Z,98.00
2019-01-23T03:04:40.033Z,98.00
2019-01-23T03:07:08.451Z,97.80
2019-01-23T03:09:42.726Z,97.60
2019-01-23T03:12:14.250Z,97.60
2019-01-23T03:14:42.703Z,97.50
2019-01-23T03:17:18.629Z,97.40
2019-01-23T03:19:49.011Z,97.40
2019-01-23T03:22:17.446Z,97.30
2019-01-23T03:24:51.736Z,97.20
2019-01-23T03:27:20.608Z,97.10
2019-01-23T03:29:49.092Z,97.20
2019-01-23T03:32:23.569Z,97.20
2019-01-23T03:34:55.438Z,97.20
2019-01-23T03:37:35.801Z,97.20
2019-01-23T03:40:07.324Z,97.10
2019-01-23T03:42:41.454Z,97.10
2019-01-23T03:45:13.280Z,97.40
2019-01-23T03:47:44.414Z,97.00
2019-01-23T03:50:19.630Z,96.90
2019-01-23T03:52:53.810Z,96.90
2019-01-23T03:55:22.418Z,96.80
2019-01-23T03:57:55.482Z,96.70
2019-01-23T04:00:29.702Z,96.70
2019-01-23T04:03:10.134Z,96.60
2019-01-23T04:05:38.593Z,96.60
2019-01-23T04:08:07.014Z,96.50
2019-01-23T04:10:38.170Z,96.50
2019-01-23T04:13:09.695Z,96.40
2019-01-23T04:15:39.765Z,96.20
2019-01-23T04:18:09.293Z,96.20
2019-01-23T04:20:39.381Z,96.20
2019-01-23T04:23:10.489Z,96.30
2019-01-23T04:25:43.374Z,96.30
2019-01-23T04:28:11.825Z,96.30
2019-01-23T04:30:43.484Z,96.40
2019-01-23T04:33:14.998Z,96.20
2019-01-23T04:35:43.430Z,96.10
2019-01-23T04:38:11.897Z,95.90
2019-01-23T04:40:41.958Z,95.90
2019-01-23T04:43:21.598Z,96.00
2019-01-23T04:45:52.986Z,96.00
2019-01-23T04:48:25.085Z,96.00
2019-01-23T04:51:11.601Z,96.10
2019-01-23T04:53:48.586Z,96.10
2019-01-23T04:56:21.835Z,96.10
2019-01-23T04:58:51.945Z,96.10
2019-01-23T05:01:27.881Z,96.10
2019-01-23T05:03:53.465Z,96.20
2019-01-23T05:06:22.709Z,96.20
2019-01-23T05:09:00.194Z,96.30
2019-01-23T05:11:28.649Z,96.20
2019-01-23T05:13:58.715Z,96.20
2019-01-23T05:16:28.806Z,96.30
2019-01-23T05:18:59.917Z,96.30
2019-01-23T05:21:32.649Z,96.30
2019-01-23T05:24:08.334Z,96.40
2019-01-23T05:26:35.547Z,96.40
2019-01-23T05:29:05.806Z,96.40
2019-01-23T05:31:34.526Z,96.30
2019-01-23T05:34:02.979Z,96.20
2019-01-23T05:36:40.341Z,96.20
2019-01-23T05:39:11.465Z,96.10
2019-01-23T05:41:47.479Z,96.20
2019-01-23T05:44:18.819Z,96.50
2019-01-23T05:46:47.249Z,96.70
2019-01-23T05:49:15.705Z,97.10
2019-01-23T05:51:47.034Z,97.20
2019-01-23T05:54:17.129Z,97.50
2019-01-23T05:56:54.087Z,97.80
2019-01-23T05:59:25.626Z,98.10
2019-01-23T06:01:56.731Z,98.50
2019-01-23T06:04:33.805Z,99.10
2019-01-23T06:07:04.949Z,99.20
2019-01-23T06:09:35.941Z,99.30
2019-01-23T06:12:04.390Z,99.40
2019-01-23T06:14:38.784Z,99.40
2019-01-23T06:17:08.590Z,99.40
2019-01-23T06:19:39.708Z,99.40
2019-01-23T06:22:08.162Z,99.40
2019-01-23T06:24:45.737Z,99.50
2019-01-23T06:27:17.431Z,99.50
2019-01-23T06:29:47.523Z,99.50
2019-01-23T06:32:15.970Z,99.60
2019-01-23T06:34:46.040Z,99.60
2019-01-23T06:37:24.497Z,99.70
2019-01-23T06:39:57.185Z,99.80
2019-01-23T06:42:26.127Z,99.80
2019-01-23T06:44:55.422Z,99.90
2019-01-23T06:47:26.783Z,99.90
2019-01-23T06:49:55.238Z,99.90
2019-01-23T06:52:25.306Z,99.90
2019-01-23T06:54:57.485Z,99.90
2019-01-23T06:57:27.577Z,99.90
2019-01-23T07:00:00.026Z,99.90
2019-01-23T07:02:34.951Z,99.90
2019-01-23T07:05:07.173Z,99.90
2019-01-23T07:07:35.601Z,99.90
2019-01-23T07:10:07.437Z,99.90
2019-01-23T07:12:41.763Z,99.90
2019-01-23T07:15:18.081Z,99.90
2019-01-23T07:17:49.998Z,99.90
2019-01-23T07:20:27.262Z,99.90
2019-01-23T07:22:56.635Z,99.90
2019-01-23T07:25:32.307Z,99.80
2019-01-23T07:28:06.414Z,99.80
2019-01-23T07:30:37.214Z,99.90
2019-01-23T07:33:05.649Z,99.90
2019-01-23T07:35:35.746Z,99.90
2019-01-23T07:38:11.088Z,99.90
2019-01-23T07:40:41.181Z,99.90
2019-01-23T07:43:12.670Z,99.80
2019-01-23T07:45:43.888Z,99.70
2019-01-23T07:48:15.069Z,99.80
2019-01-23T07:50:48.962Z,99.80
2019-01-23T07:53:17.412Z,99.80
2019-01-23T07:55:49.629Z,99.80
2019-01-23T07:58:17.892Z,99.90
2019-01-23T08:00:51.092Z,99.80
2019-01-23T08:03:19.513Z,99.60
2019-01-23T08:05:47.980Z,99.60
2019-01-23T08:08:17.103Z,99.50
2019-01-23T08:10:47.170Z,99.50
2019-01-23T08:13:15.650Z,99.50
2019-01-23T08:15:49.593Z,99.60
2019-01-23T08:18:21.024Z,99.50
2019-01-23T08:20:50.163Z,99.50
2019-01-23T08:23:24.250Z,99.70
2019-01-23T08:25:55.821Z,99.70
2019-01-23T08:28:26.977Z,99.50
2019-01-23T08:31:07.318Z,99.50
2019-01-23T08:33:38.718Z,99.50
2019-01-23T08:36:07.189Z,99.60
2019-01-23T08:38:44.073Z,99.50
2019-01-23T08:41:15.215Z,99.80
2019-01-23T08:43:49.339Z,99.30
2019-01-23T08:46:18.898Z,99.20
2019-01-23T08:48:47.326Z,99.20
2019-01-23T08:51:15.749Z,99.40
2019-01-23T08:53:47.097Z,99.50
2019-01-23T08:56:15.517Z,99.60
2019-01-23T08:58:48.254Z,99.70
2019-01-23T09:01:28.432Z,99.70
2019-01-23T09:04:02.896Z,99.70
2019-01-23T09:06:35.894Z,99.40
2019-01-23T09:09:10.033Z,99.10
2019-01-23T09:11:49.729Z,99.10
2019-01-23T09:14:22.493Z,99.10
2019-01-23T09:16:57.043Z,99.20
2019-01-23T09:19:27.106Z,99.20
2019-01-23T09:22:00.154Z,99.20
2019-01-23T09:24:40.233Z,99.00
2019-01-23T09:27:11.532Z,99.20
2019-01-23T09:29:41.299Z,99.40
2019-01-23T09:32:15.731Z,99.40
2019-01-23T09:34:58.109Z,99.20
2019-01-23T09:37:35.562Z,99.50
2019-01-23T09:40:25.515Z,99.50
2019-01-23T09:43:11.862Z,99.40
2019-01-23T09:45:50.998Z,99.60
2019-01-23T09:48:51.559Z,99.40
2019-01-23T09:51:39.126Z,99.40
2019-01-23T09:54:10.996Z,99.40
2019-01-23T09:56:47.533Z,99.00
2019-01-23T09:59:16.236Z,98.90
2019-01-23T10:01:44.670Z,98.80
2019-01-23T10:04:15.860Z,98.30
2019-01-23T10:06:44.278Z,98.40
2019-01-23T10:09:12.714Z,98.60
2019-01-23T10:11:45.753Z,98.20
2019-01-23T10:14:15.817Z,98.00
2019-01-23T10:16:50.440Z,97.90
2019-01-23T10:19:18.897Z,97.90
2019-01-23T10:21:56.338Z,97.90
2019-01-23T10:24:26.649Z,97.70
2019-01-23T10:26:55.829Z,97.80
2019-01-23T10:29:31.482Z,98.00
2019-01-23T10:32:02.570Z,97.70
2019-01-23T10:34:32.673Z,97.70
2019-01-23T10:37:04.274Z,97.70
2019-01-23T10:39:35.417Z,97.80
2019-01-23T10:42:10.106Z,98.20
2019-01-23T10:44:39.807Z,98.30
2019-01-23T10:47:11.350Z,98.40
2019-01-23T10:49:39.807Z,98.50
2019-01-23T10:52:08.264Z,98.40
2019-01-23T10:54:45.645Z,98.00
2019-01-23T10:57:19.990Z,98.10
2019-01-23T10:59:51.214Z,98.20
2019-01-23T11:02:27.006Z,98.20
2019-01-23T11:05:01.441Z,98.10
2019-01-23T11:07:32.914Z,97.50
2019-01-23T11:10:14.278Z,97.50
2019-01-23T11:12:44.338Z,97.30
2019-01-23T11:15:13.322Z,97.20
2019-01-23T11:17:41.947Z,97.30
2019-01-23T11:20:14.982Z,97.20
2019-01-23T11:22:51.969Z,97.20
2019-01-23T11:25:23.578Z,97.20
2019-01-23T11:27:58.981Z,97.60
2019-01-23T11:30:29.382Z,97.40
2019-01-23T11:32:57.835Z,97.20
2019-01-23T11:35:26.271Z,97.10
2019-01-23T11:37:58.918Z,97.10
2019-01-23T11:40:29.914Z,97.20
2019-01-23T11:42:58.339Z,97.30
2019-01-23T11:45:30.614Z,97.70
2019-01-23T11:47:59.074Z,97.60
2019-01-23T11:50:30.585Z,97.60
2019-01-23T11:53:09.174Z,97.60
2019-01-23T11:55:37.602Z,97.60
2019-01-23T11:58:10.431Z,97.40
2019-01-23T12:00:40.513Z,97.40
2019-01-23T12:03:09.300Z,97.30
2019-01-23T12:05:42.075Z,97.00
2019-01-23T12:08:13.546Z,97.20
2019-01-23T12:10:52.714Z,97.50
2019-01-23T12:13:25.355Z,97.10
2019-01-23T12:16:00.999Z,96.90
2019-01-23T12:18:32.412Z,96.80
2019-01-23T12:21:09.673Z,96.90
2019-01-23T12:23:39.814Z,97.00
2019-01-23T12:26:08.267Z,96.90
2019-01-23T12:28:38.329Z,97.10
2019-01-23T12:31:06.816Z,96.80
2019-01-23T12:33:47.074Z,96.60
2019-01-23T12:36:15.534Z,96.40
2019-01-23T12:38:43.998Z,96.40
2019-01-23T12:41:12.428Z,96.30
2019-01-23T12:43:42.495Z,96.40
2019-01-23T12:46:13.787Z,96.20
2019-01-23T12:48:47.858Z,96.10
2019-01-23T12:51:22.047Z,96.20
2019-01-23T12:53:57.058Z,96.00
2019-01-23T12:56:25.486Z,95.70
2019-01-23T12:58:54.258Z,95.80
2019-01-23T13:01:25.670Z,95.80
2019-01-23T13:03:54.122Z,95.70
2019-01-23T13:06:25.255Z,95.70
2019-01-23T13:08:55.034Z,95.70
2019-01-23T13:11:28.635Z,95.50
2019-01-23T13:13:57.087Z,95.60
2019-01-23T13:16:30.089Z,95.70
2019-01-23T13:19:07.455Z,95.60
2019-01-23T13:21:37.852Z,95.50
2019-01-23T13:24:07.306Z,95.80
2019-01-23T13:26:38.643Z,95.90
2019-01-23T13:29:08.714Z,95.70
2019-01-23T13:31:49.249Z,95.90
2019-01-23T13:34:16.312Z,96.00
2019-01-23T13:36:45.643Z,96.30
2019-01-23T13:39:17.310Z,96.20
2019-01-23T13:41:49.104Z,96.00
2019-01-23T13:44:21.935Z,96.10
2019-01-23T13:46:47.707Z,96.30
2019-01-23T13:49:18.950Z,96.60
2019-01-23T13:51:53.790Z,96.30
2019-01-23T13:54:22.222Z,96.40
2019-01-23T13:56:50.677Z,96.50
2019-01-23T13:59:22.268Z,96.60
2019-01-23T14:01:56.154Z,97.10
2019-01-23T14:04:25.780Z,97.00
2019-01-23T14:06:58.002Z,97.10
2019-01-23T14:09:29.135Z,97.20
2019-01-23T14:11:57.590Z,97.10
2019-01-23T14:14:31.102Z,97.40
2019-01-23T14:17:01.269Z,97.20
2019-01-23T14:19:29.693Z,96.90
2019-01-23T14:21:59.795Z,97.00
2019-01-23T14:24:30.865Z,96.90
2019-01-23T14:27:02.242Z,97.00
2019-01-23T14:29:32.572Z,97.10
2019-01-23T14:32:03.795Z,97.10
2019-01-23T14:34:42.574Z,97.00
2019-01-23T14:37:11.067Z,97.00
2019-01-23T14:39:41.133Z,96.90
2019-01-23T14:42:11.155Z,97.00
2019-01-23T14:44:41.271Z,97.00
2019-01-23T14:47:11.346Z,96.90
2019-01-23T14:49:44.337Z,97.20
2019-01-23T14:52:13.136Z,97.30
2019-01-23T14:54:44.601Z,97.10
2019-01-23T14:57:13.127Z,97.10
2019-01-23T14:59:47.761Z,97.30
2019-01-23T15:02:18.854Z,97.30
2019-01-23T15:04:50.050Z,97.50
2019-01-23T15:07:18.502Z,97.70
2019-01-23T15:09:46.925Z,97.80
2019-01-23T15:12:18.283Z,97.80
2019-01-23T15:15:06.694Z,97.80
2019-01-23T15:17:38.257Z,97.80
2019-01-23T15:20:11.435Z,97.60
2019-01-23T15:22:42.911Z,97.50
2019-01-23T15:25:19.155Z,97.70
2019-01-23T15:27:51.154Z,97.90
2019-01-23T15:30:21.823Z,98.00
2019-01-23T15:32:52.251Z,98.10
2019-01-23T15:35:23.925Z,98.10
2019-01-23T15:37:52.370Z,98.20
2019-01-23T15:40:26.422Z,98.60
2019-01-23T15:42:54.985Z,98.50
2019-01-23T15:45:29.827Z,98.30
2019-01-23T15:47:58.364Z,98.70
2019-01-23T15:50:27.631Z,98.50
2019-01-23T15:52:57.894Z,98.30
2019-01-23T15:55:26.838Z,98.30
2019-01-23T15:57:56.434Z,98.30
2019-01-23T16:00:27.864Z,98.30
2019-01-23T16:02:57.716Z,98.40
2019-01-23T16:05:26.584Z,98.60
2019-01-23T16:08:01.806Z,98.60
2019-01-23T16:10:40.210Z,98.60
2019-01-23T16:13:08.935Z,98.50
2019-01-23T16:15:41.998Z,98.50
2019-01-23T16:18:10.762Z,98.40
2019-01-23T16:20:48.670Z,98.40
2019-01-23T16:23:17.471Z,98.40
2019-01-23T16:25:47.299Z,98.70
2019-01-23T16:28:22.114Z,98.60
2019-01-23T16:30:50.999Z,98.40
2019-01-23T16:33:19.531Z,98.50
2019-01-23T16:35:54.212Z,98.70
2019-01-23T16:38:22.755Z,98.80
2019-01-23T16:40:52.503Z,98.90
2019-01-23T16:43:24.870Z,98.90
2019-01-23T16:45:55.007Z,98.90
2019-01-23T16:48:27.042Z,98.60
2019-01-23T16:51:03.256Z,98.60
2019-01-23T16:53:35.117Z,98.60
2019-01-23T16:56:04.364Z,98.70
2019-01-23T16:58:37.571Z,98.70
2019-01-23T17:01:14.310Z,98.70
2019-01-23T17:03:43.523Z,98.70
2019-01-23T17:06:19.909Z,98.70
2019-01-23T17:08:46.081Z,98.90
2019-01-23T17:11:14.999Z,98.90
2019-01-23T17:13:46.678Z,99.10
2019-01-23T17:16:21.403Z,98.90
2019-01-23T17:18:54.622Z,99.00
2019-01-23T17:21:26.330Z,99.00
2019-01-23T17:23:56.615Z,99.10
2019-01-23T17:26:37.764Z,99.20
2019-01-23T17:29:08.706Z,99.00
2019-01-23T17:31:37.948Z,98.80
2019-01-23T17:34:08.298Z,98.80
2019-01-23T17:36:40.881Z,98.70
2019-01-23T17:39:12.994Z,98.80
2019-01-23T17:41:42.202Z,98.80
2019-01-23T17:44:16.973Z,98.80
2019-01-23T17:46:49.602Z,98.80
2019-01-23T17:49:24.567Z,98.90
2019-01-23T17:51:53.551Z,98.90
2019-01-23T17:54:22.536Z,98.90
2019-01-23T17:56:51.413Z,98.90
2019-01-23T17:59:20.648Z,98.90
2019-01-23T18:01:49.877Z,98.90
2019-01-23T18:04:24.329Z,98.90
2019-01-23T18:06:53.418Z,98.90
2019-01-23T18:09:22.348Z,98.80
2019-01-23T18:11:56.901Z,98.90
2019-01-23T18:14:26.018Z,99.10
2019-01-23T18:16:57.751Z,99.20
2019-01-23T18:19:26.918Z,99.30
2019-01-23T18:21:57.213Z,99.50
2019-01-23T18:24:33.493Z,99.60
2019-01-23T18:27:05.497Z,99.60
2019-01-23T18:29:38.451Z,99.70
2019-01-23T18:32:07.401Z,99.80
2019-01-23T18:34:56.428Z,99.80
2019-01-23T18:37:40.842Z,99.70
2019-01-23T18:40:24.917Z,99.70
2019-01-23T18:43:06.335Z,99.70
2019-01-23T18:45:41.978Z,99.50
2019-01-23T18:48:36.281Z,99.40
2019-01-23T18:51:14.034Z,99.40
2019-01-23T18:53:45.684Z,99.40
2019-01-23T18:56:21.129Z,99.50
2019-01-23T18:58:53.492Z,99.60
2019-01-23T19:01:23.323Z,99.70
2019-01-23T19:03:52.501Z,99.70
2019-01-23T19:06:24.525Z,99.70
2019-01-23T19:08:53.907Z,99.60
2019-01-23T19:11:23.612Z,99.50
2019-01-23T19:13:52.859Z,99.50
2019-01-23T19:16:22.067Z,99.50
2019-01-23T19:18:54.097Z,99.90
2019-01-23T19:21:23.621Z,99.60
2019-01-23T19:23:56.382Z,99.60
2019-01-23T19:26:32.486Z,99.40
2019-01-23T19:29:05.169Z,99.80
2019-01-23T19:31:34.538Z,99.80
2019-01-23T19:34:06.742Z,99.80
2019-01-23T19:36:36.056Z,99.90
2019-01-23T19:39:08.619Z,99.90
2019-01-23T19:41:38.951Z,99.90
2019-01-23T19:44:12.018Z,99.80
2019-01-23T19:46:41.213Z,99.80
2019-01-23T19:49:10.551Z,99.70
2019-01-23T19:51:39.709Z,99.60
2019-01-23T19:54:09.170Z,99.60
2019-01-23T19:56:38.708Z,99.60
2019-01-23T19:59:08.099Z,99.70
2019-01-23T20:01:37.582Z,99.60
2019-01-23T20:04:10.055Z,99.50
2019-01-23T20:06:42.318Z,99.50
2019-01-23T20:09:18.079Z,99.60
2019-01-23T20:11:53.318Z,99.50
2019-01-23T20:14:22.218Z,99.50
2019-01-23T20:16:53.893Z,99.60
2019-01-23T20:19:26.783Z,99.60
2019-01-23T20:21:56.066Z,99.50
2019-01-23T20:24:25.234Z,99.50
2019-01-23T20:26:54.247Z,99.00
2019-01-23T20:29:23.418Z,99.00
2019-01-23T20:31:52.514Z,99.00
2019-01-23T20:34:25.482Z,99.20
2019-01-23T20:36:58.442Z,99.10
2019-01-23T20:39:33.506Z,99.10
2019-01-23T20:42:06.105Z,99.20
2019-01-23T20:44:38.251Z,99.30
2019-01-23T20:47:09.962Z,99.40
2019-01-23T20:49:44.847Z,99.30
2019-01-23T20:52:14.569Z,99.20
2019-01-23T20:54:43.743Z,99.20
2019-01-23T20:57:19.834Z,99.10
2019-01-23T20:59:48.799Z,99.20
2019-01-23T21:02:23.856Z,99.00
2019-01-23T21:04:54.820Z,99.10
2019-01-23T21:07:29.802Z,99.00
2019-01-23T21:09:59.019Z,99.00
2019-01-23T21:12:29.257Z,98.90
2019-01-23T21:15:03.547Z,99.00
2019-01-23T21:17:40.054Z,98.90
2019-01-23T21:20:10.848Z,99.00
2019-01-23T21:22:53.267Z,99.10
2019-01-23T21:25:26.293Z,99.20
2019-01-23T21:27:59.793Z,99.30
2019-01-23T21:30:29.101Z,99.20
2019-01-23T21:33:03.344Z,99.30
2019-01-23T21:35:32.541Z,99.40
2019-01-23T21:38:01.847Z,99.40
2019-01-23T21:40:34.690Z,99.40
2019-01-23T21:45:40.600Z,99.30
2019-01-23T21:48:10.338Z,99.30
2019-01-23T21:50:42.467Z,99.40
2019-01-23T21:53:14.282Z,99.40
2019-01-23T21:55:49.037Z,99.30
2019-01-23T21:58:17.736Z,99.30
2019-01-23T22:00:52.332Z,99.00
2019-01-23T22:03:25.387Z,99.00
2019-01-23T22:05:56.989Z,99.00
2019-01-23T22:08:25.520Z,99.10
2019-01-23T22:10:55.594Z,99.20
2019-01-23T22:13:28.601Z,99.10
2019-01-23T22:16:01.648Z,99.00
2019-01-23T22:18:30.134Z,99.10
2019-01-23T22:21:08.240Z,99.30
2019-01-23T22:23:36.700Z,99.30
2019-01-23T22:26:08.342Z,99.30
2019-01-23T22:28:39.809Z,99.40
2019-01-23T22:31:09.893Z,99.40
2019-01-23T22:33:46.466Z,99.40
2019-01-23T22:36:17.579Z,99.30
2019-01-23T22:38:46.048Z,99.40
2019-01-23T22:41:17.549Z,99.40
2019-01-23T22:43:52.295Z,99.40
2019-01-23T22:46:26.605Z,99.60
2019-01-23T22:48:55.846Z,99.50
2019-01-23T22:51:25.342Z,99.60
2019-01-23T22:54:00.344Z,99.70
2019-01-23T22:56:28.773Z,99.70
2019-01-23T22:59:03.378Z,99.70
2019-01-23T23:01:33.798Z,99.70
2019-01-23T23:04:05.614Z,99.80
2019-01-23T23:06:37.526Z,99.70
2019-01-23T23:09:25.170Z,99.80
2019-01-23T23:11:52.376Z,99.70
2019-01-23T23:14:26.579Z,99.60
2019-01-23T23:16:55.013Z,99.70
2019-01-23T23:19:27.773Z,99.80
2019-01-23T23:21:58.901Z,99.80
2019-01-23T23:24:28.996Z,99.60
2019-01-23T23:27:03.149Z,99.50
2019-01-23T23:29:33.230Z,99.60
2019-01-23T23:32:03.330Z,99.70
2019-01-23T23:34:36.406Z,99.70
2019-01-23T23:37:16.786Z,99.80
2019-01-23T23:39:46.879Z,99.70
2019-01-23T23:42:15.305Z,99.60
2019-01-23T23:44:43.764Z,99.60
2019-01-23T23:47:13.543Z,99.70
2019-01-23T23:49:44.813Z,99.70
2019-01-23T23:52:18.786Z,99.80
2019-01-23T23:54:50.017Z,99.70
2019-01-23T23:57:21.492Z,99.70
2019-01-23T23:59:51.558Z,99.70
